»·PEaware :: N5205X KAVX-KSAN

N5205X :: KAVX-KSAN

FLIGHT INFORMATION

Flight Status: Arrived
Operator: Privately registered:
United States
More flights under this callsign
Pilot: Martin B. (29991)
Aircraft: CIRRUS SR-22
(SR22)
More flights by this aircraft type
Origin: KAVX Catalina
United States
Destination: KSAN San Diego Intl-Lindbergh
United States
More flights between these airports :: More routes between these airports
Route: SXC V208 OCN V23 MZB
File this flight plan on PilotEdge
Remarks: CSTP56
Altitude:
(Current/Filed)
5,000ft
Speed:
(Current/Filed)
160kts
Departed: 25-Nov-20 11:31 AM
Arrived: 25-Nov-20 12:24 PM
Distance/Time
Traveled:
74nm/0:52
Distance/Time
To Go:
Arrived

Flight Plot

Page will automatically refresh every two minutes.


Map Options




Map Legend


Flown Route
Filed Route
Departure Airport
Arrival Airport
Navaid (VOR, NDB)
Fix

Horizontal Profiles

Position Reports

Time Latitude Longitude Heading Altitude Ground
Speed
25-Nov-20 11:06 33.403112 -118.415849 33 1592ft 0kts
25-Nov-20 11:07 33.403112 -118.415849 33 1592ft 0kts
25-Nov-20 11:08 33.403112 -118.415849 33 1592ft 0kts
25-Nov-20 11:09 33.403112 -118.415849 33 1592ft 0kts
25-Nov-20 11:09 33.403112 -118.415849 33 1592ft 0kts
25-Nov-20 11:11 33.403112 -118.415849 33 1592ft 0kts
25-Nov-20 11:12 33.403112 -118.415849 33 1592ft 0kts
25-Nov-20 11:13 33.403112 -118.415849 33 1592ft 0kts
25-Nov-20 11:14 33.403112 -118.415849 33 1592ft 0kts
25-Nov-20 11:14 33.403112 -118.415849 33 1592ft 0kts
25-Nov-20 11:16 33.403112 -118.415849 33 1592ft 0kts
25-Nov-20 11:16 33.403112 -118.415849 33 1592ft 0kts
25-Nov-20 11:17 33.403112 -118.415849 33 1592ft 0kts
25-Nov-20 11:18 33.403113 -118.415849 33 1593ft 0kts
25-Nov-20 11:19 33.403112 -118.415849 33 1592ft 0kts
25-Nov-20 11:20 33.403112 -118.415849 33 1592ft 0kts
25-Nov-20 11:21 33.403112 -118.415849 33 1592ft 0kts
25-Nov-20 11:22 33.403112 -118.415849 33 1592ft 0kts
25-Nov-20 11:23 33.403112 -118.415849 33 1592ft 0kts
25-Nov-20 11:24 33.403209 -118.415775 33 1592ft 8kts
25-Nov-20 11:25 33.405899 -118.413593 49 1570ft 17kts
25-Nov-20 11:26 33.406990 -118.411716 52 1553ft 0kts
25-Nov-20 11:27 33.406990 -118.411716 52 1553ft 0kts
25-Nov-20 11:28 33.406990 -118.411716 52 1553ft 0kts
25-Nov-20 11:29 33.407022 -118.411671 50 1553ft 4kts
25-Nov-20 11:30 33.403456 -118.418458 238 1684ft 89kts
25-Nov-20 11:31 33.382922 -118.449530 235 2462ft 139kts
25-Nov-20 11:32 33.357997 -118.484759 234 3327ft 122kts
25-Nov-20 11:33 33.333450 -118.511604 213 3991ft 123kts
25-Nov-20 11:34 33.303590 -118.503260 104 4788ft 139kts
25-Nov-20 11:35 33.324195 -118.469033 36 4996ft 130kts
25-Nov-20 11:36 33.357819 -118.435354 39 5006ft 176kts
25-Nov-20 11:37 33.368496 -118.380088 96 4998ft 183kts
25-Nov-20 11:38 33.361777 -118.319794 98 4999ft 182kts
25-Nov-20 11:39 33.354098 -118.259716 98 4999ft 182kts
25-Nov-20 11:40 33.346185 -118.199957 96 4996ft 174kts
25-Nov-20 11:41 33.338570 -118.141731 97 4997ft 178kts
25-Nov-20 11:42 33.330955 -118.083187 96 4997ft 178kts
25-Nov-20 11:43 33.323079 -118.024411 97 4996ft 180kts
25-Nov-20 11:44 33.315847 -117.964831 99 4994ft 181kts
25-Nov-20 11:45 33.307186 -117.905342 99 4993ft 182kts
25-Nov-20 11:46 33.299055 -117.845281 100 5000ft 182kts
25-Nov-20 11:47 33.290955 -117.785528 101 5000ft 181kts
25-Nov-20 11:48 33.282573 -117.726225 102 5000ft 180kts
25-Nov-20 11:49 33.273673 -117.667257 102 5004ft 179kts
25-Nov-20 11:50 33.264981 -117.610355 99 5002ft 159kts
25-Nov-20 11:51 33.257602 -117.556438 100 5012ft 176kts
25-Nov-20 11:52 33.250692 -117.500330 100 5015ft 179kts
25-Nov-20 11:53 33.243455 -117.441040 100 5007ft 180kts
25-Nov-20 11:54 33.211315 -117.405588 163 5008ft 171kts
25-Nov-20 11:55 33.166031 -117.386289 163 5004ft 173kts
25-Nov-20 11:56 33.120195 -117.367032 164 5001ft 176kts
25-Nov-20 11:57 33.075645 -117.348265 164 4998ft 163kts
25-Nov-20 11:58 33.032871 -117.330312 164 4998ft 162kts
25-Nov-20 11:59 32.990406 -117.312504 163 4997ft 162kts
25-Nov-20 12:00 32.947913 -117.294699 163 4996ft 162kts
25-Nov-20 12:01 32.905298 -117.276858 163 4997ft 163kts
25-Nov-20 12:02 32.862255 -117.258869 163 4997ft 164kts
25-Nov-20 12:03 32.819190 -117.240884 163 4998ft 165kts
25-Nov-20 12:04 32.797490 -117.198665 97 5000ft 167kts
25-Nov-20 12:05 32.781729 -117.147148 115 5000ft 167kts
25-Nov-20 12:06 32.761483 -117.097209 110 4999ft 167kts
25-Nov-20 12:07 32.752946 -117.042863 98 5000ft 168kts
25-Nov-20 12:08 32.745810 -116.992812 101 4990ft 133kts
25-Nov-20 12:09 32.737716 -116.946045 101 5010ft 161kts
25-Nov-20 12:10 32.730034 -116.898967 100 4973ft 116kts
25-Nov-20 12:11 32.723688 -116.858026 104 5002ft 133kts
25-Nov-20 12:12 32.696038 -116.851137 221 4982ft 100kts
25-Nov-20 12:13 32.684543 -116.887610 252 4874ft 128kts
25-Nov-20 12:14 32.675982 -116.921796 261 3818ft 98kts
25-Nov-20 12:15 32.677254 -116.951562 277 3828ft 108kts
25-Nov-20 12:16 32.684812 -116.989012 284 3599ft 118kts
25-Nov-20 12:17 32.693244 -117.024160 285 3596ft 105kts
25-Nov-20 12:18 32.701121 -117.056409 286 2793ft 95kts
25-Nov-20 12:19 32.708095 -117.084994 287 1975ft 76kts
25-Nov-20 12:20 32.714458 -117.111077 287 1574ft 86kts
25-Nov-20 12:21 32.721320 -117.139276 287 931ft 91kts
25-Nov-20 12:22 32.728059 -117.167738 287 288ft 91kts
25-Nov-20 12:23 32.732995 -117.184329 351 19ft 5kts
25-Nov-20 12:24 32.733056 -117.184343 346 19ft 0kts
25-Nov-20 12:25 32.733762 -117.183709 113 19ft 11kts
25-Nov-20 12:26 32.733416 -117.179097 106 19ft 10kts
25-Nov-20 12:27 32.733581 -117.178676 176 19ft 0kts
25-Nov-20 12:28 32.733581 -117.178676 176 19ft 0kts
25-Nov-20 12:29 32.733581 -117.178676 176 19ft 0kts
25-Nov-20 12:30 32.733581 -117.178676 176 19ft 0kts
25-Nov-20 12:31 32.733581 -117.178676 176 19ft 0kts
25-Nov-20 12:32 32.733581 -117.178676 176 19ft 0kts
25-Nov-20 12:33 32.733581 -117.178676 176 19ft 0kts

Navigation Log

Ident Type
Flight plan parsing failed, navigation log unavailable